sensor_id;sensor_type;location;lat;lon;timestamp;temperature;humidity
46720;DHT22;32452;51.382;-0.002;2023-07-28T00:02:04;19.40;99.90
46720;DHT22;32452;51.382;-0.002;2023-07-28T00:04:50;19.50;99.90
46720;DHT22;32452;51.382;-0.002;2023-07-28T00:07:36;19.40;99.90
46720;DHT22;32452;51.382;-0.002;2023-07-28T00:10:22;19.40;99.90
46720;DHT22;32452;51.382;-0.002;2023-07-28T00:13:08;19.30;99.90
46720;DHT22;32452;51.382;-0.002;2023-07-28T00:15:54;19.20;99.90
46720;DHT22;32452;51.382;-0.002;2023-07-28T00:18:39;19.10;99.90
46720;DHT22;32452;51.382;-0.002;2023-07-28T00:21:26;19.10;99.90
46720;DHT22;32452;51.382;-0.002;2023-07-28T00:24:13;19.00;99.90
46720;DHT22;32452;51.382;-0.002;2023-07-28T00:27:00;19.00;99.90
46720;DHT22;32452;51.382;-0.002;2023-07-28T00:29:45;19.00;99.90
46720;DHT22;32452;51.382;-0.002;2023-07-28T00:32:31;18.90;99.90
46720;DHT22;32452;51.382;-0.002;2023-07-28T00:35:17;18.90;99.90
46720;DHT22;32452;51.382;-0.002;2023-07-28T00:38:02;18.90;99.90
46720;DHT22;32452;51.382;-0.002;2023-07-28T00:40:48;18.90;99.90
46720;DHT22;32452;51.382;-0.002;2023-07-28T00:43:35;18.90;99.90
46720;DHT22;32452;51.382;-0.002;2023-07-28T00:46:20;18.90;99.90
46720;DHT22;32452;51.382;-0.002;2023-07-28T00:49:06;18.90;99.90
46720;DHT22;32452;51.382;-0.002;2023-07-28T00:51:56;18.90;99.90
46720;DHT22;32452;51.382;-0.002;2023-07-28T00:54:41;18.90;99.90
46720;DHT22;32452;51.382;-0.002;2023-07-28T00:57:27;19.00;99.90
46720;DHT22;32452;51.382;-0.002;2023-07-28T01:00:14;19.00;99.90
46720;DHT22;32452;51.382;-0.002;2023-07-28T01:03:00;19.00;99.90
46720;DHT22;32452;51.382;-0.002;2023-07-28T01:09:00;19.10;99.90
46720;DHT22;32452;51.382;-0.002;2023-07-28T01:11:57;19.10;99.90
46720;DHT22;32452;51.382;-0.002;2023-07-28T01:14:44;19.10;99.90
46720;DHT22;32452;51.382;-0.002;2023-07-28T01:17:31;19.10;99.90
46720;DHT22;32452;51.382;-0.002;2023-07-28T01:20:18;19.20;99.90
46720;DHT22;32452;51.382;-0.002;2023-07-28T01:23:34;19.20;99.90
46720;DHT22;32452;51.382;-0.002;2023-07-28T01:26:37;19.20;99.90
46720;DHT22;32452;51.382;-0.002;2023-07-28T01:29:24;19.20;99.90
46720;DHT22;32452;51.382;-0.002;2023-07-28T01:32:11;19.20;99.90
46720;DHT22;32452;51.382;-0.002;2023-07-28T01:34:57;19.30;99.90
46720;DHT22;32452;51.382;-0.002;2023-07-28T01:37:42;19.30;99.90
46720;DHT22;32452;51.382;-0.002;2023-07-28T01:40:30;19.30;99.90
46720;DHT22;32452;51.382;-0.002;2023-07-28T01:43:16;19.30;99.90
46720;DHT22;32452;51.382;-0.002;2023-07-28T01:46:02;19.30;99.90
46720;DHT22;32452;51.382;-0.002;2023-07-28T01:48:48;19.30;99.90
46720;DHT22;32452;51.382;-0.002;2023-07-28T01:51:34;19.30;99.90
46720;DHT22;32452;51.382;-0.002;2023-07-28T01:54:19;19.30;99.90
46720;DHT22;32452;51.382;-0.002;2023-07-28T01:57:05;19.30;99.90
46720;DHT22;32452;51.382;-0.002;2023-07-28T01:59:51;19.30;99.90
46720;DHT22;32452;51.382;-0.002;2023-07-28T02:02:37;19.30;99.90
46720;DHT22;32452;51.382;-0.002;2023-07-28T02:05:22;19.30;99.90
46720;DHT22;32452;51.382;-0.002;2023-07-28T02:08:08;19.30;99.90
46720;DHT22;32452;51.382;-0.002;2023-07-28T02:10:54;19.30;99.90
46720;DHT22;32452;51.382;-0.002;2023-07-28T02:13:40;19.30;99.90
46720;DHT22;32452;51.382;-0.002;2023-07-28T02:16:25;19.30;99.90
46720;DHT22;32452;51.382;-0.002;2023-07-28T02:19:12;19.30;99.90
46720;DHT22;32452;51.382;-0.002;2023-07-28T02:21:59;19.30;99.90
46720;DHT22;32452;51.382;-0.002;2023-07-28T02:24:45;19.30;99.90
46720;DHT22;32452;51.382;-0.002;2023-07-28T02:27:30;19.30;99.90
46720;DHT22;32452;51.382;-0.002;2023-07-28T02:30:16;19.30;99.90
46720;DHT22;32452;51.382;-0.002;2023-07-28T02:33:01;19.30;99.90
46720;DHT22;32452;51.382;-0.002;2023-07-28T02:35:47;19.20;99.90
46720;DHT22;32452;51.382;-0.002;2023-07-28T02:38:33;19.20;99.90
46720;DHT22;32452;51.382;-0.002;2023-07-28T02:41:18;19.20;99.90
46720;DHT22;32452;51.382;-0.002;2023-07-28T02:44:04;19.20;99.90
46720;DHT22;32452;51.382;-0.002;2023-07-28T02:46:51;19.10;99.90
46720;DHT22;32452;51.382;-0.002;2023-07-28T02:49:37;19.10;99.90
46720;DHT22;32452;51.382;-0.002;2023-07-28T02:52:23;19.10;99.90
46720;DHT22;32452;51.382;-0.002;2023-07-28T02:55:08;19.10;99.90
46720;DHT22;32452;51.382;-0.002;2023-07-28T02:57:54;19.00;99.90
46720;DHT22;32452;51.382;-0.002;2023-07-28T03:00:41;19.10;99.90
46720;DHT22;32452;51.382;-0.002;2023-07-28T03:03:27;19.00;99.90
46720;DHT22;32452;51.382;-0.002;2023-07-28T03:06:13;19.00;99.90
46720;DHT22;32452;51.382;-0.002;2023-07-28T03:08:59;19.00;99.90
46720;DHT22;32452;51.382;-0.002;2023-07-28T03:11:45;19.00;99.90
46720;DHT22;32452;51.382;-0.002;2023-07-28T03:14:32;19.00;99.90
46720;DHT22;32452;51.382;-0.002;2023-07-28T03:17:18;18.90;99.90
46720;DHT22;32452;51.382;-0.002;2023-07-28T03:20:06;18.90;99.90
46720;DHT22;32452;51.382;-0.002;2023-07-28T03:22:52;18.90;99.90
46720;DHT22;32452;51.382;-0.002;2023-07-28T03:25:40;18.90;99.90
46720;DHT22;32452;51.382;-0.002;2023-07-28T03:28:25;18.90;99.90
46720;DHT22;32452;51.382;-0.002;2023-07-28T03:31:11;18.90;99.90
46720;DHT22;32452;51.382;-0.002;2023-07-28T03:33:57;18.80;99.90
46720;DHT22;32452;51.382;-0.002;2023-07-28T03:36:43;18.80;99.90
46720;DHT22;32452;51.382;-0.002;2023-07-28T03:39:28;18.80;99.90
46720;DHT22;32452;51.382;-0.002;2023-07-28T03:42:16;18.80;99.90
46720;DHT22;32452;51.382;-0.002;2023-07-28T03:45:02;18.80;99.90
46720;DHT22;32452;51.382;-0.002;2023-07-28T03:47:48;18.80;99.90
46720;DHT22;32452;51.382;-0.002;2023-07-28T03:50:34;18.80;99.90
46720;DHT22;32452;51.382;-0.002;2023-07-28T03:53:19;18.70;99.90
46720;DHT22;32452;51.382;-0.002;2023-07-28T03:56:05;18.70;99.90
46720;DHT22;32452;51.382;-0.002;2023-07-28T03:58:51;18.70;99.90
46720;DHT22;32452;51.382;-0.002;2023-07-28T04:01:36;18.70;99.90
46720;DHT22;32452;51.382;-0.002;2023-07-28T04:04:22;18.70;99.90
46720;DHT22;32452;51.382;-0.002;2023-07-28T04:07:07;18.70;99.90
46720;DHT22;32452;51.382;-0.002;2023-07-28T04:09:53;18.70;99.90
46720;DHT22;32452;51.382;-0.002;2023-07-28T04:12:39;18.70;99.90
46720;DHT22;32452;51.382;-0.002;2023-07-28T04:15:24;18.70;99.90
46720;DHT22;32452;51.382;-0.002;2023-07-28T04:18:10;18.70;99.90
46720;DHT22;32452;51.382;-0.002;2023-07-28T04:20:56;18.70;99.90
46720;DHT22;32452;51.382;-0.002;2023-07-28T04:23:41;18.70;99.90
46720;DHT22;32452;51.382;-0.002;2023-07-28T04:26:27;18.70;99.90
46720;DHT22;32452;51.382;-0.002;2023-07-28T04:29:12;18.60;99.90
46720;DHT22;32452;51.382;-0.002;2023-07-28T04:31:58;18.60;99.90
46720;DHT22;32452;51.382;-0.002;2023-07-28T04:34:44;18.60;99.90
46720;DHT22;32452;51.382;-0.002;2023-07-28T04:37:29;18.60;99.90
46720;DHT22;32452;51.382;-0.002;2023-07-28T04:40:15;18.60;99.90
46720;DHT22;32452;51.382;-0.002;2023-07-28T04:43:01;18.60;99.90
46720;DHT22;32452;51.382;-0.002;2023-07-28T04:45:47;18.60;99.90
46720;DHT22;32452;51.382;-0.002;2023-07-28T04:48:33;18.60;99.90
46720;DHT22;32452;51.382;-0.002;2023-07-28T04:51:18;18.60;99.90
46720;DHT22;32452;51.382;-0.002;2023-07-28T04:54:04;18.60;99.90
46720;DHT22;32452;51.382;-0.002;2023-07-28T04:56:49;18.60;99.90
46720;DHT22;32452;51.382;-0.002;2023-07-28T04:59:38;18.60;99.90
46720;DHT22;32452;51.382;-0.002;2023-07-28T05:02:24;18.60;99.90
46720;DHT22;32452;51.382;-0.002;2023-07-28T05:05:09;18.60;99.90
46720;DHT22;32452;51.382;-0.002;2023-07-28T05:07:55;18.60;99.90
46720;DHT22;32452;51.382;-0.002;2023-07-28T05:10:41;18.70;99.90
46720;DHT22;32452;51.382;-0.002;2023-07-28T05:13:28;18.70;99.90
46720;DHT22;32452;51.382;-0.002;2023-07-28T05:16:13;18.60;99.90
46720;DHT22;32452;51.382;-0.002;2023-07-28T05:18:59;18.70;99.90
46720;DHT22;32452;51.382;-0.002;2023-07-28T05:21:44;18.60;99.90
46720;DHT22;32452;51.382;-0.002;2023-07-28T05:24:30;18.70;99.90
46720;DHT22;32452;51.382;-0.002;2023-07-28T05:27:16;18.70;99.90
46720;DHT22;32452;51.382;-0.002;2023-07-28T05:30:01;18.70;99.90
46720;DHT22;32452;51.382;-0.002;2023-07-28T05:32:47;18.70;99.90
46720;DHT22;32452;51.382;-0.002;2023-07-28T05:35:33;18.70;99.90
46720;DHT22;32452;51.382;-0.002;2023-07-28T05:38:18;18.70;99.90
46720;DHT22;32452;51.382;-0.002;2023-07-28T05:41:04;18.70;99.90
46720;DHT22;32452;51.382;-0.002;2023-07-28T05:43:50;18.70;99.90
46720;DHT22;32452;51.382;-0.002;2023-07-28T05:46:36;18.70;99.90
46720;DHT22;32452;51.382;-0.002;2023-07-28T05:49:22;18.70;99.90
46720;DHT22;32452;51.382;-0.002;2023-07-28T05:52:07;18.70;99.90
46720;DHT22;32452;51.382;-0.002;2023-07-28T05:54:53;18.70;99.90
46720;DHT22;32452;51.382;-0.002;2023-07-28T05:57:39;18.80;99.90
46720;DHT22;32452;51.382;-0.002;2023-07-28T06:00:25;19.00;99.90
46720;DHT22;32452;51.382;-0.002;2023-07-28T06:03:11;19.20;99.90
46720;DHT22;32452;51.382;-0.002;2023-07-28T06:05:57;19.30;99.90
46720;DHT22;32452;51.382;-0.002;2023-07-28T06:08:43;19.40;99.90
46720;DHT22;32452;51.382;-0.002;2023-07-28T06:11:29;19.40;99.90
46720;DHT22;32452;51.382;-0.002;2023-07-28T06:14:14;19.50;99.90
46720;DHT22;32452;51.382;-0.002;2023-07-28T06:17:00;19.40;99.90
46720;DHT22;32452;51.382;-0.002;2023-07-28T06:19:46;19.50;99.90
46720;DHT22;32452;51.382;-0.002;2023-07-28T06:22:31;19.60;99.90
46720;DHT22;32452;51.382;-0.002;2023-07-28T06:25:17;19.70;99.90
46720;DHT22;32452;51.382;-0.002;2023-07-28T06:28:03;19.80;99.90
46720;DHT22;32452;51.382;-0.002;2023-07-28T06:30:56;19.70;99.90
46720;DHT22;32452;51.382;-0.002;2023-07-28T06:33:42;19.70;99.90
46720;DHT22;32452;51.382;-0.002;2023-07-28T06:36:27;19.60;99.90
46720;DHT22;32452;51.382;-0.002;2023-07-28T06:39:16;19.60;99.90
46720;DHT22;32452;51.382;-0.002;2023-07-28T06:42:02;19.60;99.90
46720;DHT22;32452;51.382;-0.002;2023-07-28T06:44:47;19.50;99.90
46720;DHT22;32452;51.382;-0.002;2023-07-28T06:47:33;19.40;99.90
46720;DHT22;32452;51.382;-0.002;2023-07-28T06:50:19;19.40;99.90
46720;DHT22;32452;51.382;-0.002;2023-07-28T06:53:05;19.40;99.90
46720;DHT22;32452;51.382;-0.002;2023-07-28T06:55:51;19.50;99.90
46720;DHT22;32452;51.382;-0.002;2023-07-28T06:58:36;19.50;99.90
46720;DHT22;32452;51.382;-0.002;2023-07-28T07:01:22;19.50;99.90
46720;DHT22;32452;51.382;-0.002;2023-07-28T07:04:08;19.50;99.90
46720;DHT22;32452;51.382;-0.002;2023-07-28T07:06:53;19.50;99.90
46720;DHT22;32452;51.382;-0.002;2023-07-28T07:09:39;19.50;99.90
46720;DHT22;32452;51.382;-0.002;2023-07-28T07:12:26;19.50;99.90
46720;DHT22;32452;51.382;-0.002;2023-07-28T07:15:11;19.50;99.90
46720;DHT22;32452;51.382;-0.002;2023-07-28T07:17:57;19.60;99.90
46720;DHT22;32452;51.382;-0.002;2023-07-28T07:20:43;19.50;99.90
46720;DHT22;32452;51.382;-0.002;2023-07-28T07:23:28;19.60;99.90
46720;DHT22;32452;51.382;-0.002;2023-07-28T07:26:14;19.60;99.90
46720;DHT22;32452;51.382;-0.002;2023-07-28T07:28:59;19.70;99.90
46720;DHT22;32452;51.382;-0.002;2023-07-28T07:31:45;19.70;99.90
46720;DHT22;32452;51.382;-0.002;2023-07-28T07:34:32;19.70;99.90
46720;DHT22;32452;51.382;-0.002;2023-07-28T07:37:18;19.70;99.90
46720;DHT22;32452;51.382;-0.002;2023-07-28T07:40:05;19.80;99.90
46720;DHT22;32452;51.382;-0.002;2023-07-28T07:42:52;19.80;99.90
46720;DHT22;32452;51.382;-0.002;2023-07-28T07:45:38;19.80;99.90
46720;DHT22;32452;51.382;-0.002;2023-07-28T07:48:24;19.80;99.90
46720;DHT22;32452;51.382;-0.002;2023-07-28T07:51:09;19.80;99.90
46720;DHT22;32452;51.382;-0.002;2023-07-28T07:53:56;19.80;99.90
46720;DHT22;32452;51.382;-0.002;2023-07-28T07:56:42;19.90;99.90
46720;DHT22;32452;51.382;-0.002;2023-07-28T07:59:28;19.90;99.90
46720;DHT22;32452;51.382;-0.002;2023-07-28T08:02:15;19.90;99.90
46720;DHT22;32452;51.382;-0.002;2023-07-28T08:05:01;19.90;99.90
46720;DHT22;32452;51.382;-0.002;2023-07-28T08:07:48;19.90;99.90
46720;DHT22;32452;51.382;-0.002;2023-07-28T08:10:34;20.00;99.90
46720;DHT22;32452;51.382;-0.002;2023-07-28T08:13:19;20.10;99.70
46720;DHT22;32452;51.382;-0.002;2023-07-28T08:16:05;20.20;99.50
46720;DHT22;32452;51.382;-0.002;2023-07-28T08:18:50;20.20;99.30
46720;DHT22;32452;51.382;-0.002;2023-07-28T08:21:36;20.20;99.20
46720;DHT22;32452;51.382;-0.002;2023-07-28T08:24:22;20.20;99.10
46720;DHT22;32452;51.382;-0.002;2023-07-28T08:27:08;20.10;99.10
46720;DHT22;32452;51.382;-0.002;2023-07-28T08:29:54;20.10;99.20
46720;DHT22;32452;51.382;-0.002;2023-07-28T08:32:39;20.10;99.60
46720;DHT22;32452;51.382;-0.002;2023-07-28T08:35:25;20.30;99.40
46720;DHT22;32452;51.382;-0.002;2023-07-28T08:38:11;20.60;99.40
46720;DHT22;32452;51.382;-0.002;2023-07-28T08:40:58;21.00;98.90
46720;DHT22;32452;51.382;-0.002;2023-07-28T08:43:45;21.20;98.10
46720;DHT22;32452;51.382;-0.002;2023-07-28T08:46:31;21.30;97.50
46720;DHT22;32452;51.382;-0.002;2023-07-28T08:49:19;21.30;97.10
46720;DHT22;32452;51.382;-0.002;2023-07-28T08:52:07;21.20;96.90
46720;DHT22;32452;51.382;-0.002;2023-07-28T08:54:53;21.20;96.90
46720;DHT22;32452;51.382;-0.002;2023-07-28T08:57:39;21.10;97.10
46720;DHT22;32452;51.382;-0.002;2023-07-28T09:00:25;21.10;96.90
46720;DHT22;32452;51.382;-0.002;2023-07-28T09:03:11;21.10;96.90
46720;DHT22;32452;51.382;-0.002;2023-07-28T09:06:01;21.20;96.80
46720;DHT22;32452;51.382;-0.002;2023-07-28T09:08:47;21.20;96.60
46720;DHT22;32452;51.382;-0.002;2023-07-28T09:11:33;21.20;96.60
46720;DHT22;32452;51.382;-0.002;2023-07-28T09:14:30;21.20;96.50
46720;DHT22;32452;51.382;-0.002;2023-07-28T09:17:16;21.20;96.40
46720;DHT22;32452;51.382;-0.002;2023-07-28T09:20:03;21.20;96.40
46720;DHT22;32452;51.382;-0.002;2023-07-28T09:22:51;21.10;96.40
46720;DHT22;32452;51.382;-0.002;2023-07-28T09:25:38;21.10;96.40
46720;DHT22;32452;51.382;-0.002;2023-07-28T09:28:36;21.00;96.50
46720;DHT22;32452;51.382;-0.002;2023-07-28T09:31:29;21.00;96.30
46720;DHT22;32452;51.382;-0.002;2023-07-28T09:34:26;21.00;96.30
46720;DHT22;32452;51.382;-0.002;2023-07-28T09:37:14;21.00;96.50
46720;DHT22;32452;51.382;-0.002;2023-07-28T09:40:01;21.00;96.40
46720;DHT22;32452;51.382;-0.002;2023-07-28T09:42:50;21.00;96.50
46720;DHT22;32452;51.382;-0.002;2023-07-28T09:45:40;21.00;96.50
46720;DHT22;32452;51.382;-0.002;2023-07-28T09:48:29;21.10;96.50
46720;DHT22;32452;51.382;-0.002;2023-07-28T09:51:18;21.10;96.40
46720;DHT22;32452;51.382;-0.002;2023-07-28T09:54:07;21.30;96.40
46720;DHT22;32452;51.382;-0.002;2023-07-28T09:56:57;21.50;96.40
46720;DHT22;32452;51.382;-0.002;2023-07-28T09:59:47;21.90;96.40
46720;DHT22;32452;51.382;-0.002;2023-07-28T10:02:33;22.40;95.90
46720;DHT22;32452;51.382;-0.002;2023-07-28T10:05:19;22.80;95.10
46720;DHT22;32452;51.382;-0.002;2023-07-28T10:08:06;22.80;94.30
46720;DHT22;32452;51.382;-0.002;2023-07-28T10:10:52;22.80;93.90
46720;DHT22;32452;51.382;-0.002;2023-07-28T10:13:45;22.70;93.80
46720;DHT22;32452;51.382;-0.002;2023-07-28T10:16:41;22.60;93.60
46720;DHT22;32452;51.382;-0.002;2023-07-28T10:19:28;22.50;93.70
46720;DHT22;32452;51.382;-0.002;2023-07-28T10:22:14;22.30;93.90
46720;DHT22;32452;51.382;-0.002;2023-07-28T10:25:02;22.40;93.90
46720;DHT22;32452;51.382;-0.002;2023-07-28T10:27:50;22.60;93.50
46720;DHT22;32452;51.382;-0.002;2023-07-28T10:30:38;22.90;93.00
46720;DHT22;32452;51.382;-0.002;2023-07-28T10:33:41;22.90;92.50
46720;DHT22;32452;51.382;-0.002;2023-07-28T10:39:16;23.10;92.60
46720;DHT22;32452;51.382;-0.002;2023-07-28T10:42:09;23.40;91.60
46720;DHT22;32452;51.382;-0.002;2023-07-28T10:44:56;23.30;91.20
46720;DHT22;32452;51.382;-0.002;2023-07-28T10:47:42;23.20;90.70
46720;DHT22;32452;51.382;-0.002;2023-07-28T10:50:29;23.00;90.70
46720;DHT22;32452;51.382;-0.002;2023-07-28T10:53:16;22.80;90.50
46720;DHT22;32452;51.382;-0.002;2023-07-28T10:56:03;22.70;90.50
46720;DHT22;32452;51.382;-0.002;2023-07-28T10:58:57;22.50;90.30
46720;DHT22;32452;51.382;-0.002;2023-07-28T11:01:43;22.30;90.40
46720;DHT22;32452;51.382;-0.002;2023-07-28T11:04:29;22.20;90.60
46720;DHT22;32452;51.382;-0.002;2023-07-28T11:07:15;22.10;90.70
46720;DHT22;32452;51.382;-0.002;2023-07-28T11:10:02;22.10;90.90
46720;DHT22;32452;51.382;-0.002;2023-07-28T11:12:50;22.00;91.00
46720;DHT22;32452;51.382;-0.002;2023-07-28T11:15:36;22.10;91.10
46720;DHT22;32452;51.382;-0.002;2023-07-28T11:18:25;22.10;91.10
46720;DHT22;32452;51.382;-0.002;2023-07-28T11:21:12;22.10;91.10
46720;DHT22;32452;51.382;-0.002;2023-07-28T11:24:03;22.20;91.00
46720;DHT22;32452;51.382;-0.002;2023-07-28T11:26:53;22.20;90.80
46720;DHT22;32452;51.382;-0.002;2023-07-28T11:29:41;22.20;91.00
46720;DHT22;32452;51.382;-0.002;2023-07-28T11:32:27;22.30;91.10
46720;DHT22;32452;51.382;-0.002;2023-07-28T11:35:18;22.30;91.00
46720;DHT22;32452;51.382;-0.002;2023-07-28T11:38:05;22.40;90.70
46720;DHT22;32452;51.382;-0.002;2023-07-28T11:40:53;22.30;91.00
46720;DHT22;32452;51.382;-0.002;2023-07-28T11:43:40;22.30;91.00
46720;DHT22;32452;51.382;-0.002;2023-07-28T11:49:20;22.20;90.80
46720;DHT22;32452;51.382;-0.002;2023-07-28T11:52:09;22.10;91.00
46720;DHT22;32452;51.382;-0.002;2023-07-28T11:54:59;22.10;91.10
46720;DHT22;32452;51.382;-0.002;2023-07-28T11:57:47;22.10;91.40
46720;DHT22;32452;51.382;-0.002;2023-07-28T12:00:38;22.10;91.40
46720;DHT22;32452;51.382;-0.002;2023-07-28T12:03:29;22.10;91.50
46720;DHT22;32452;51.382;-0.002;2023-07-28T12:06:17;22.20;91.60
46720;DHT22;32452;51.382;-0.002;2023-07-28T12:09:14;22.20;91.50
46720;DHT22;32452;51.382;-0.002;2023-07-28T12:11:59;22.40;91.50
46720;DHT22;32452;51.382;-0.002;2023-07-28T12:14:48;22.60;91.30
46720;DHT22;32452;51.382;-0.002;2023-07-28T12:18:20;22.90;91.50
46720;DHT22;32452;51.382;-0.002;2023-07-28T12:21:09;23.20;90.70
46720;DHT22;32452;51.382;-0.002;2023-07-28T12:23:55;23.60;90.40
46720;DHT22;32452;51.382;-0.002;2023-07-28T12:26:46;23.90;88.90
46720;DHT22;32452;51.382;-0.002;2023-07-28T12:29:33;24.10;87.20
46720;DHT22;32452;51.382;-0.002;2023-07-28T12:32:19;24.20;85.90
46720;DHT22;32452;51.382;-0.002;2023-07-28T12:35:19;24.40;85.50
46720;DHT22;32452;51.382;-0.002;2023-07-28T12:38:07;24.50;85.20
46720;DHT22;32452;51.382;-0.002;2023-07-28T12:40:57;24.60;84.70
46720;DHT22;32452;51.382;-0.002;2023-07-28T12:43:47;24.80;83.70
46720;DHT22;32452;51.382;-0.002;2023-07-28T12:46:37;24.90;82.90
46720;DHT22;32452;51.382;-0.002;2023-07-28T12:49:24;24.80;82.30
46720;DHT22;32452;51.382;-0.002;2023-07-28T12:52:12;24.70;82.20
46720;DHT22;32452;51.382;-0.002;2023-07-28T12:55:01;24.70;81.40
46720;DHT22;32452;51.382;-0.002;2023-07-28T12:57:49;24.50;81.30
46720;DHT22;32452;51.382;-0.002;2023-07-28T13:00:35;24.20;82.50
46720;DHT22;32452;51.382;-0.002;2023-07-28T13:03:23;24.00;82.30
46720;DHT22;32452;51.382;-0.002;2023-07-28T13:06:08;23.80;82.80
46720;DHT22;32452;51.382;-0.002;2023-07-28T13:08:54;23.60;83.60
46720;DHT22;32452;51.382;-0.002;2023-07-28T13:11:43;23.40;84.50
46720;DHT22;32452;51.382;-0.002;2023-07-28T13:14:31;23.30;85.30
46720;DHT22;32452;51.382;-0.002;2023-07-28T13:17:17;23.30;85.70
46720;DHT22;32452;51.382;-0.002;2023-07-28T13:20:03;23.20;85.70
46720;DHT22;32452;51.382;-0.002;2023-07-28T13:22:49;23.20;85.90
46720;DHT22;32452;51.382;-0.002;2023-07-28T13:25:35;23.30;85.70
46720;DHT22;32452;51.382;-0.002;2023-07-28T13:28:21;23.30;86.00
46720;DHT22;32452;51.382;-0.002;2023-07-28T13:31:06;23.40;86.00
46720;DHT22;32452;51.382;-0.002;2023-07-28T13:33:52;23.40;86.30
46720;DHT22;32452;51.382;-0.002;2023-07-28T13:36:39;23.40;86.70
46720;DHT22;32452;51.382;-0.002;2023-07-28T13:39:25;23.40;87.20
46720;DHT22;32452;51.382;-0.002;2023-07-28T13:42:12;23.50;87.40
46720;DHT22;32452;51.382;-0.002;2023-07-28T13:45:00;23.60;86.90
46720;DHT22;32452;51.382;-0.002;2023-07-28T13:47:45;23.60;86.90
46720;DHT22;32452;51.382;-0.002;2023-07-28T13:50:31;23.60;86.70
46720;DHT22;32452;51.382;-0.002;2023-07-28T13:53:20;23.60;86.40
46720;DHT22;32452;51.382;-0.002;2023-07-28T13:56:08;23.70;87.40
46720;DHT22;32452;51.382;-0.002;2023-07-28T13:59:06;24.00;87.20
46720;DHT22;32452;51.382;-0.002;2023-07-28T14:01:51;24.20;86.00
46720;DHT22;32452;51.382;-0.002;2023-07-28T14:04:37;24.40;85.40
46720;DHT22;32452;51.382;-0.002;2023-07-28T14:07:22;24.50;84.70
46720;DHT22;32452;51.382;-0.002;2023-07-28T14:10:08;24.50;84.30
46720;DHT22;32452;51.382;-0.002;2023-07-28T14:12:54;24.60;84.00
46720;DHT22;32452;51.382;-0.002;2023-07-28T14:15:39;24.60;83.50
46720;DHT22;32452;51.382;-0.002;2023-07-28T14:18:26;24.70;83.20
46720;DHT22;32452;51.382;-0.002;2023-07-28T14:21:11;24.60;83.30
46720;DHT22;32452;51.382;-0.002;2023-07-28T14:23:58;24.60;82.60
46720;DHT22;32452;51.382;-0.002;2023-07-28T14:26:43;24.70;82.60
46720;DHT22;32452;51.382;-0.002;2023-07-28T14:29:29;24.80;81.80
46720;DHT22;32452;51.382;-0.002;2023-07-28T14:32:15;25.00;80.50
46720;DHT22;32452;51.382;-0.002;2023-07-28T14:35:00;25.10;80.00
46720;DHT22;32452;51.382;-0.002;2023-07-28T14:37:46;25.00;77.80
46720;DHT22;32452;51.382;-0.002;2023-07-28T14:40:32;24.90;77.90
46720;DHT22;32452;51.382;-0.002;2023-07-28T14:43:17;24.80;77.80
46720;DHT22;32452;51.382;-0.002;2023-07-28T14:46:03;24.90;76.70
46720;DHT22;32452;51.382;-0.002;2023-07-28T14:48:49;24.80;76.50
46720;DHT22;32452;51.382;-0.002;2023-07-28T14:51:35;24.60;76.60
46720;DHT22;32452;51.382;-0.002;2023-07-28T14:54:21;24.50;76.60
46720;DHT22;32452;51.382;-0.002;2023-07-28T14:57:07;24.40;77.00
46720;DHT22;32452;51.382;-0.002;2023-07-28T15:00:18;24.20;77.70
46720;DHT22;32452;51.382;-0.002;2023-07-28T15:03:04;24.10;78.00
46720;DHT22;32452;51.382;-0.002;2023-07-28T15:05:49;24.00;78.00
46720;DHT22;32452;51.382;-0.002;2023-07-28T15:08:35;24.00;78.70
46720;DHT22;32452;51.382;-0.002;2023-07-28T15:11:21;24.00;79.00
46720;DHT22;32452;51.382;-0.002;2023-07-28T15:14:06;24.00;78.80
46720;DHT22;32452;51.382;-0.002;2023-07-28T15:16:52;24.10;78.30
46720;DHT22;32452;51.382;-0.002;2023-07-28T15:19:38;24.10;78.50
46720;DHT22;32452;51.382;-0.002;2023-07-28T15:22:23;24.10;78.60
46720;DHT22;32452;51.382;-0.002;2023-07-28T15:25:09;24.20;78.50
46720;DHT22;32452;51.382;-0.002;2023-07-28T15:27:55;24.20;78.00
46720;DHT22;32452;51.382;-0.002;2023-07-28T15:30:41;24.20;78.60
46720;DHT22;32452;51.382;-0.002;2023-07-28T15:33:30;24.20;77.60
46720;DHT22;32452;51.382;-0.002;2023-07-28T15:36:16;24.20;77.50
46720;DHT22;32452;51.382;-0.002;2023-07-28T15:39:02;24.20;77.40
46720;DHT22;32452;51.382;-0.002;2023-07-28T15:41:48;24.20;77.50
46720;DHT22;32452;51.382;-0.002;2023-07-28T15:44:34;24.20;77.60
46720;DHT22;32452;51.382;-0.002;2023-07-28T15:47:20;24.20;77.60
46720;DHT22;32452;51.382;-0.002;2023-07-28T15:50:06;24.20;77.00
46720;DHT22;32452;51.382;-0.002;2023-07-28T15:52:52;24.20;77.10
46720;DHT22;32452;51.382;-0.002;2023-07-28T15:55:37;24.20;76.40
46720;DHT22;32452;51.382;-0.002;2023-07-28T15:58:23;24.00;76.30
46720;DHT22;32452;51.382;-0.002;2023-07-28T16:01:09;23.90;76.30
46720;DHT22;32452;51.382;-0.002;2023-07-28T16:03:56;23.90;76.70
46720;DHT22;32452;51.382;-0.002;2023-07-28T16:06:41;23.90;76.60
46720;DHT22;32452;51.382;-0.002;2023-07-28T16:09:27;23.90;76.50
46720;DHT22;32452;51.382;-0.002;2023-07-28T16:12:12;23.90;76.20
46720;DHT22;32452;51.382;-0.002;2023-07-28T16:14:58;23.90;76.20
46720;DHT22;32452;51.382;-0.002;2023-07-28T16:17:44;23.90;76.00
46720;DHT22;32452;51.382;-0.002;2023-07-28T16:20:29;23.90;76.10
46720;DHT22;32452;51.382;-0.002;2023-07-28T16:23:15;23.90;76.00
46720;DHT22;32452;51.382;-0.002;2023-07-28T16:26:00;23.90;75.70
46720;DHT22;32452;51.382;-0.002;2023-07-28T16:28:46;23.90;76.00
46720;DHT22;32452;51.382;-0.002;2023-07-28T16:31:32;23.80;76.60
46720;DHT22;32452;51.382;-0.002;2023-07-28T16:34:18;23.70;76.80
46720;DHT22;32452;51.382;-0.002;2023-07-28T16:37:04;23.60;76.90
46720;DHT22;32452;51.382;-0.002;2023-07-28T16:39:50;23.50;77.00
46720;DHT22;32452;51.382;-0.002;2023-07-28T16:42:37;23.40;77.30
46720;DHT22;32452;51.382;-0.002;2023-07-28T16:45:22;23.30;77.70
46720;DHT22;32452;51.382;-0.002;2023-07-28T16:48:08;23.30;78.20
46720;DHT22;32452;51.382;-0.002;2023-07-28T16:50:54;23.20;78.20
46720;DHT22;32452;51.382;-0.002;2023-07-28T16:53:41;23.20;77.90
46720;DHT22;32452;51.382;-0.002;2023-07-28T16:56:27;23.20;77.70
46720;DHT22;32452;51.382;-0.002;2023-07-28T16:59:13;23.20;77.60
46720;DHT22;32452;51.382;-0.002;2023-07-28T17:01:59;23.10;77.70
46720;DHT22;32452;51.382;-0.002;2023-07-28T17:04:45;23.00;77.70
46720;DHT22;32452;51.382;-0.002;2023-07-28T17:07:30;23.00;77.70
46720;DHT22;32452;51.382;-0.002;2023-07-28T17:10:17;22.90;77.60
46720;DHT22;32452;51.382;-0.002;2023-07-28T17:13:02;22.80;78.00
46720;DHT22;32452;51.382;-0.002;2023-07-28T17:15:48;22.80;77.90
46720;DHT22;32452;51.382;-0.002;2023-07-28T17:18:34;22.80;77.60
46720;DHT22;32452;51.382;-0.002;2023-07-28T17:21:19;22.80;77.20
46720;DHT22;32452;51.382;-0.002;2023-07-28T17:24:05;22.80;77.40
46720;DHT22;32452;51.382;-0.002;2023-07-28T17:26:51;22.70;77.60